Time;durP1;ratioP1;P1;durP2;ratioP2;P2;SDS_P1;SDS_P2;PMS_P1;PMS_P2;Temp;Humidity;BMP_temperature;BMP_pressure;BME280_temperature;BME280_humidity;BME280_pressure;Samples;Min_cycle;Max_cycle;Signal;HPM_P1;HPM_P2
2022/06/19 00:00:37;;;;;;;14.95;4.13;;;16.90;78.10;;;;;;5024772;28;20069;-74
2022/06/19 00:03:07;;;;;;;18.92;4.20;;;16.90;78.10;;;;;;5021580;28;20029;-73
2022/06/19 00:05:33;;;;;;;14.07;3.10;;;16.90;77.60;;;;;;5026446;28;20083;-74
2022/06/19 00:08:00;;;;;;;16.63;3.90;;;16.90;76.80;;;;;;5023053;28;20067;-74
2022/06/19 00:10:26;;;;;;;20.05;4.00;;;16.90;76.90;;;;;;5007707;28;20702;-73
2022/06/19 00:12:51;;;;;;;20.15;4.30;;;17.00;77.50;;;;;;5024686;28;20029;-73
2022/06/19 00:15:17;;;;;;;14.20;3.60;;;16.80;77.70;;;;;;5009328;28;20037;-73
2022/06/19 00:17:43;;;;;;;17.63;3.65;;;16.90;77.60;;;;;;5027767;28;20391;-74
2022/06/19 00:20:11;;;;;;;17.40;4.25;;;16.90;77.50;;;;;;5029149;28;20053;-73
2022/06/19 00:22:37;;;;;;;16.35;3.65;;;16.80;77.00;;;;;;5022822;28;20040;-73
2022/06/19 00:25:04;;;;;;;20.80;3.33;;;16.80;76.30;;;;;;5015230;28;20660;-74
2022/06/19 00:27:30;;;;;;;14.43;2.97;;;16.80;76.30;;;;;;5020067;28;20041;-73
2022/06/19 00:29:58;;;;;;;19.67;3.20;;;16.70;75.40;;;;;;5022394;28;20068;-73
2022/06/19 00:32:25;;;;;;;21.52;3.40;;;16.70;74.40;;;;;;5023620;28;21035;-73
2022/06/19 00:34:51;;;;;;;18.52;3.65;;;16.70;74.20;;;;;;5004308;28;20069;-73
2022/06/19 00:37:17;;;;;;;15.63;3.20;;;16.60;73.70;;;;;;5022761;28;20068;-73
2022/06/19 00:39:42;;;;;;;19.35;3.28;;;16.60;73.50;;;;;;5022847;28;20034;-73
2022/06/19 00:42:13;;;;;;;19.98;3.28;;;16.60;73.50;;;;;;5003501;28;20500;-74
2022/06/19 00:44:39;;;;;;;23.17;4.03;;;16.60;73.50;;;;;;5020589;28;20041;-74
2022/06/19 00:47:14;;;;;;;23.15;3.83;;;16.70;73.80;;;;;;5023385;28;20048;-73
2022/06/19 00:49:50;;;;;;;14.48;2.85;;;16.70;74.20;;;;;;5020686;28;20071;-74
2022/06/19 00:52:30;;;;;;;21.02;3.63;;;16.70;74.40;;;;;;5023386;28;20037;-73
2022/06/19 00:55:08;;;;;;;13.93;2.85;;;16.70;74.50;;;;;;5017751;28;20056;-73
2022/06/19 00:57:38;;;;;;;16.17;2.90;;;16.70;74.10;;;;;;5023835;28;20542;-73
2022/06/19 01:00:08;;;;;;;17.67;3.13;;;16.70;73.70;;;;;;5004040;28;20080;-73
2022/06/19 01:02:36;;;;;;;16.95;3.75;;;16.70;73.10;;;;;;5023329;28;20045;-73
2022/06/19 01:05:02;;;;;;;17.63;3.50;;;16.70;72.50;;;;;;5021903;28;20053;-73
2022/06/19 01:07:29;;;;;;;18.30;2.75;;;16.70;72.00;;;;;;5020166;28;20453;-73
2022/06/19 01:09:54;;;;;;;17.70;2.90;;;16.70;71.50;;;;;;5009404;28;20045;-73
2022/06/19 01:12:23;;;;;;;16.13;2.65;;;16.70;71.50;;;;;;5016890;28;20037;-73
2022/06/19 01:14:53;;;;;;;13.95;3.13;;;16.70;71.80;;;;;;5019822;28;20064;-73
2022/06/19 01:17:19;;;;;;;12.20;2.72;;;16.60;72.00;;;;;;5021838;28;20041;-74
2022/06/19 01:19:45;;;;;;;15.50;2.80;;;16.50;72.40;;;;;;5018500;28;20042;-74
2022/06/19 01:22:24;;;;;;;15.27;3.05;;;16.40;72.00;;;;;;5021627;28;20037;-73
2022/06/19 01:24:59;;;;;;;14.60;2.92;;;16.30;72.10;;;;;;5023239;28;20087;-73
2022/06/19 01:30:11;;;;;;;;;;;16.10;70.20;;;;;;5021922;28;19924;-74
2022/06/19 01:32:37;;;;;;;14.25;2.70;;;16.00;69.60;;;;;;5026854;28;20237;-74
2022/06/19 01:35:06;;;;;;;19.35;3.28;;;16.00;69.60;;;;;;5019981;28;20056;-74
2022/06/19 01:37:33;;;;;;;13.20;2.95;;;16.00;69.30;;;;;;5022257;28;20038;-74
2022/06/19 01:40:24;;;;;;;14.85;2.70;;;16.00;68.80;;;;;;5023880;28;20037;-74
2022/06/19 01:42:50;;;;;;;18.73;2.80;;;16.10;68.50;;;;;;4999720;28;20045;-73
2022/06/19 01:45:16;;;;;;;14.95;2.15;;;15.90;68.20;;;;;;5017354;28;20076;-74
2022/06/19 01:47:42;;;;;;;17.73;3.20;;;16.00;67.70;;;;;;5003926;28;20425;-73
2022/06/19 01:50:12;;;;;;;13.68;2.58;;;15.90;66.40;;;;;;5021662;28;20349;-74
2022/06/19 01:52:38;;;;;;;9.30;2.10;;;15.90;66.00;;;;;;5006869;28;20029;-74
2022/06/19 01:55:11;;;;;;;12.15;2.22;;;15.80;66.10;;;;;;5001474;28;20576;-73
2022/06/19 01:57:40;;;;;;;12.65;2.42;;;15.80;66.00;;;;;;5014275;28;20044;-73
2022/06/19 02:00:10;;;;;;;14.45;2.63;;;15.70;65.70;;;;;;5020362;28;20048;-73
2022/06/19 02:02:37;;;;;;;16.55;3.85;;;15.70;65.20;;;;;;5002914;28;20707;-74
2022/06/19 02:05:03;;;;;;;13.68;3.10;;;15.60;64.90;;;;;;5023221;28;20059;-73
2022/06/19 02:07:30;;;;;;;15.05;2.70;;;15.50;65.10;;;;;;5021455;28;20117;-74
2022/06/19 02:09:56;;;;;;;10.80;2.08;;;15.50;65.50;;;;;;5023754;28;20029;-73
2022/06/19 02:12:23;;;;;;;13.32;2.33;;;15.50;65.30;;;;;;5022895;28;20076;-73
2022/06/19 02:14:50;;;;;;;12.35;2.28;;;15.40;64.90;;;;;;5019180;28;20534;-73
2022/06/19 02:17:29;;;;;;;15.50;3.05;;;15.40;64.60;;;;;;5022587;28;20038;-73
2022/06/19 02:19:55;;;;;;;10.27;2.08;;;15.50;64.50;;;;;;5018127;28;20040;-73
2022/06/19 02:22:20;;;;;;;12.45;2.20;;;15.60;63.60;;;;;;4998988;28;23211;-74
2022/06/19 02:24:46;;;;;;;10.95;2.83;;;15.60;62.30;;;;;;5018297;28;20037;-73
2022/06/19 02:27:13;;;;;;;13.73;2.25;;;15.60;62.10;;;;;;5023746;28;20068;-73
2022/06/19 02:29:40;;;;;;;13.98;2.33;;;15.70;61.90;;;;;;5025017;28;20390;-73
2022/06/19 02:32:22;;;;;;;11.80;2.35;;;15.80;62.00;;;;;;4999718;28;20072;-74
2022/06/19 02:34:50;;;;;;;14.00;2.50;;;15.80;61.60;;;;;;5013503;28;20038;-74
2022/06/19 02:37:22;;;;;;;17.40;2.85;;;15.80;61.60;;;;;;5019907;28;20026;-73
2022/06/19 02:40:00;;;;;;;13.27;2.65;;;15.70;61.30;;;;;;5023327;28;20563;-73
2022/06/19 02:42:34;;;;;;;9.75;2.05;;;15.60;61.30;;;;;;5020620;28;20053;-74
2022/06/19 02:45:04;;;;;;;10.43;2.25;;;15.70;61.40;;;;;;5013280;28;20065;-73
2022/06/19 02:47:34;;;;;;;13.90;2.53;;;15.60;61.40;;;;;;5020052;28;20048;-74
2022/06/19 02:49:59;;;;;;;15.15;2.47;;;15.50;61.50;;;;;;5017439;28;20033;-74
2022/06/19 02:52:26;;;;;;;13.20;2.88;;;15.60;61.80;;;;;;5016829;28;20040;-73
2022/06/19 02:54:51;;;;;;;16.95;2.65;;;15.60;61.90;;;;;;5018412;28;20031;-75
2022/06/19 02:57:18;;;;;;;13.90;2.72;;;15.60;61.90;;;;;;5017259;28;20041;-73
2022/06/19 02:59:43;;;;;;;15.60;3.03;;;15.60;62.00;;;;;;5021007;28;20119;-74
2022/06/19 03:02:12;;;;;;;13.15;2.47;;;15.70;62.20;;;;;;5020272;28;20148;-74
2022/06/19 03:04:53;;;;;;;11.98;2.45;;;15.80;61.90;;;;;;5021668;28;20052;-74
2022/06/19 03:07:18;;;;;;;12.10;2.30;;;15.90;61.80;;;;;;5010299;28;20555;-74
2022/06/19 03:09:44;;;;;;;13.40;2.30;;;15.90;61.30;;;;;;5017923;28;20033;-74
2022/06/19 03:12:10;;;;;;;13.32;2.85;;;16.00;61.10;;;;;;5016432;28;20505;-74
2022/06/19 03:14:36;;;;;;;12.82;3.08;;;16.00;61.00;;;;;;5020729;28;20042;-74
2022/06/19 03:17:02;;;;;;;18.40;2.58;;;15.90;61.00;;;;;;5018526;28;20033;-74
2022/06/19 03:19:27;;;;;;;15.40;2.20;;;16.00;60.90;;;;;;5016953;28;20119;-74
2022/06/19 03:21:54;;;;;;;13.02;2.30;;;16.00;60.80;;;;;;5025318;28;20029;-73
2022/06/19 03:24:20;;;;;;;13.48;2.42;;;16.10;60.70;;;;;;5006572;28;20147;-73
2022/06/19 03:26:46;;;;;;;12.07;2.13;;;16.20;60.20;;;;;;5018104;28;20551;-73
2022/06/19 03:29:11;;;;;;;15.35;2.83;;;16.20;59.80;;;;;;5015883;28;20098;-73
2022/06/19 03:31:38;;;;;;;9.68;2.03;;;16.20;59.40;;;;;;5014105;28;20042;-74
2022/06/19 03:34:04;;;;;;;11.00;2.28;;;16.20;59.10;;;;;;5022294;28;20048;-73
2022/06/19 03:36:29;;;;;;;10.52;2.70;;;16.20;58.90;;;;;;5017204;28;20091;-73
2022/06/19 03:38:55;;;;;;;11.43;2.20;;;16.30;58.70;;;;;;5017490;28;20112;-73
2022/06/19 03:41:21;;;;;;;16.40;2.17;;;16.30;58.30;;;;;;5009109;28;20084;-73
2022/06/19 03:43:47;;;;;;;10.43;2.40;;;16.20;58.00;;;;;;5002021;28;20102;-76
2022/06/19 03:46:16;;;;;;;10.15;1.92;;;16.10;58.40;;;;;;5012551;28;20519;-74
2022/06/19 03:48:51;;;;;;;8.40;2.05;;;16.10;58.80;;;;;;5001160;28;20057;-73
2022/06/19 03:51:22;;;;;;;10.30;2.00;;;16.10;58.80;;;;;;5017146;28;20044;-74
2022/06/19 03:53:48;;;;;;;11.50;2.05;;;16.10;58.80;;;;;;5017050;28;20042;-73
2022/06/19 03:56:21;;;;;;;9.90;2.40;;;16.10;58.90;;;;;;5021454;28;20052;-73
2022/06/19 03:58:47;;;;;;;8.95;1.60;;;16.20;58.70;;;;;;5000807;28;20034;-74
2022/06/19 04:01:14;;;;;;;11.10;1.95;;;16.30;58.60;;;;;;5014910;28;20501;-74
2022/06/19 04:03:41;;;;;;;11.88;1.88;;;16.30;58.90;;;;;;5031217;28;20033;-74
2022/06/19 04:06:09;;;;;;;10.15;1.65;;;16.30;58.80;;;;;;5018719;28;20049;-73
2022/06/19 04:08:34;;;;;;;10.27;2.20;;;16.40;59.10;;;;;;5005170;28;20709;-74
2022/06/19 04:11:00;;;;;;;7.70;1.63;;;16.50;58.90;;;;;;5015318;28;20135;-72
2022/06/19 04:13:26;;;;;;;9.48;1.90;;;16.60;58.70;;;;;;5013426;28;20397;-74
2022/06/19 04:15:51;;;;;;;10.07;2.05;;;16.60;58.90;;;;;;5017859;28;20076;-74
2022/06/19 04:18:17;;;;;;;11.65;1.90;;;16.60;59.10;;;;;;5016696;28;20131;-73
2022/06/19 04:20:43;;;;;;;7.85;1.58;;;16.50;59.30;;;;;;5015461;28;20503;-73
2022/06/19 04:23:09;;;;;;;9.82;1.70;;;16.40;59.90;;;;;;5015936;28;20037;-73
2022/06/19 04:25:35;;;;;;;13.10;2.70;;;16.30;60.40;;;;;;5004703;28;20487;-73
2022/06/19 04:28:01;;;;;;;9.95;1.90;;;16.20;60.70;;;;;;5022129;28;20087;-74
2022/06/19 04:30:27;;;;;;;9.30;2.22;;;16.20;61.00;;;;;;5019685;28;20461;-74
2022/06/19 04:32:52;;;;;;;10.18;2.55;;;16.20;60.70;;;;;;5023713;28;20509;-74
2022/06/19 04:35:18;;;;;;;9.30;2.10;;;16.30;61.00;;;;;;5005738;28;20056;-73
2022/06/19 04:37:44;;;;;;;11.40;2.30;;;16.40;61.10;;;;;;5023126;28;20039;-74
2022/06/19 04:40:11;;;;;;;10.35;2.13;;;16.40;61.30;;;;;;5019471;28;20408;-74
2022/06/19 04:42:37;;;;;;;11.45;1.85;;;16.40;61.80;;;;;;5026368;28;20594;-73
2022/06/19 04:45:03;;;;;;;13.20;2.40;;;16.40;62.70;;;;;;5029585;28;20056;-74
2022/06/19 04:47:29;;;;;;;13.52;2.40;;;16.30;64.00;;;;;;5020898;28;20061;-74
2022/06/19 04:49:54;;;;;;;16.73;3.03;;;16.30;65.20;;;;;;5022899;28;21999;-73
2022/06/19 04:52:20;;;;;;;12.95;2.50;;;16.20;66.50;;;;;;5023258;28;21004;-74
2022/06/19 04:54:46;;;;;;;11.68;2.35;;;16.10;68.00;;;;;;5019422;28;20041;-74
2022/06/19 04:57:12;;;;;;;11.30;2.50;;;16.00;68.80;;;;;;5022662;28;20044;-73
2022/06/19 04:59:37;;;;;;;16.35;3.35;;;15.80;69.80;;;;;;5025008;28;20390;-74
2022/06/19 05:02:03;;;;;;;17.52;3.10;;;15.60;70.60;;;;;;5002752;28;20041;-73
2022/06/19 05:04:29;;;;;;;11.15;2.55;;;15.50;71.30;;;;;;5021538;28;20041;-73
2022/06/19 05:06:55;;;;;;;10.80;2.65;;;15.40;72.70;;;;;;5021036;28;20442;-74
2022/06/19 05:09:20;;;;;;;11.82;3.20;;;15.40;73.10;;;;;;5019346;28;20046;-73
2022/06/19 05:11:46;;;;;;;11.88;2.90;;;15.50;75.00;;;;;;5022753;28;20480;-74
2022/06/19 05:14:13;;;;;;;15.75;2.92;;;15.50;75.30;;;;;;5021755;28;20037;-73
2022/06/19 05:16:39;;;;;;;17.80;3.30;;;15.50;75.50;;;;;;5019635;28;20132;-74
2022/06/19 05:19:05;;;;;;;14.77;3.35;;;15.50;76.20;;;;;;5027754;28;20030;-74
2022/06/19 05:21:31;;;;;;;16.35;3.10;;;15.60;76.40;;;;;;5026714;28;20029;-74
2022/06/19 05:23:58;;;;;;;19.40;3.08;;;15.60;76.30;;;;;;5021856;28;20099;-74
2022/06/19 05:26:29;;;;;;;15.23;3.80;;;15.50;75.80;;;;;;5003758;28;20156;-73
2022/06/19 05:28:56;;;;;;;11.27;3.15;;;15.50;76.90;;;;;;5018033;28;20044;-73
2022/06/19 05:31:24;;;;;;;13.65;3.60;;;15.50;76.10;;;;;;5022391;28;20401;-74
2022/06/19 05:33:49;;;;;;;16.23;3.55;;;15.60;77.20;;;;;;5017529;28;20478;-73
2022/06/19 05:36:15;;;;;;;14.98;2.95;;;15.60;77.50;;;;;;5020439;28;20161;-73
2022/06/19 05:38:41;;;;;;;16.83;3.08;;;15.60;77.60;;;;;;5027661;28;20038;-74
2022/06/19 05:41:07;;;;;;;14.45;3.22;;;15.60;77.10;;;;;;5020257;28;20047;-73
2022/06/19 05:43:34;;;;;;;13.57;3.70;;;15.50;77.40;;;;;;5016427;28;20768;-73
2022/06/19 05:46:06;;;;;;;13.13;3.17;;;15.60;77.70;;;;;;5021171;28;20603;-74
2022/06/19 05:48:33;;;;;;;14.98;3.33;;;15.60;77.60;;;;;;5022879;28;20053;-74
2022/06/19 05:51:04;;;;;;;12.60;3.10;;;15.60;76.90;;;;;;5024053;28;20041;-74
2022/06/19 05:53:32;;;;;;;19.90;3.80;;;15.40;77.50;;;;;;5023825;28;20038;-74
2022/06/19 05:55:58;;;;;;;17.08;3.30;;;15.40;77.60;;;;;;5025915;28;20114;-75
2022/06/19 05:58:24;;;;;;;17.42;4.20;;;15.30;78.30;;;;;;5019828;28;20133;-74
2022/06/19 06:00:50;;;;;;;15.73;4.07;;;15.10;79.50;;;;;;5022312;28;20049;-74
2022/06/19 06:03:18;;;;;;;14.73;3.60;;;15.10;80.50;;;;;;5023339;28;20034;-74
2022/06/19 06:05:44;;;;;;;18.70;4.32;;;15.00;81.40;;;;;;5009581;28;20420;-74
2022/06/19 06:08:11;;;;;;;16.63;3.85;;;15.00;81.60;;;;;;5018141;28;20179;-73
2022/06/19 06:10:37;;;;;;;15.38;3.47;;;14.80;81.50;;;;;;5014519;28;20043;-73
2022/06/19 06:13:02;;;;;;;17.40;3.25;;;14.70;82.10;;;;;;5016344;28;20042;-74
2022/06/19 06:15:28;;;;;;;12.98;3.47;;;14.60;82.90;;;;;;5024127;28;20041;-74
2022/06/19 06:17:54;;;;;;;12.75;3.33;;;14.60;83.10;;;;;;5021929;28;20041;-74
2022/06/19 06:20:19;;;;;;;19.50;3.45;;;14.60;83.20;;;;;;5005173;28;20033;-74
2022/06/19 06:22:45;;;;;;;19.60;3.75;;;14.50;83.80;;;;;;5019817;28;20045;-74
2022/06/19 06:25:11;;;;;;;16.67;3.20;;;14.60;84.20;;;;;;5015710;28;20056;-74
2022/06/19 06:27:37;;;;;;;14.50;2.97;;;14.60;84.00;;;;;;5019643;28;20472;-74
2022/06/19 06:30:04;;;;;;;18.65;3.47;;;14.60;84.70;;;;;;4997376;28;20095;-75
2022/06/19 06:32:29;;;;;;;17.00;3.55;;;14.60;84.70;;;;;;5009771;28;20378;-74
2022/06/19 06:34:55;;;;;;;16.02;4.10;;;14.60;85.00;;;;;;5019496;28;20041;-75
2022/06/19 06:37:21;;;;;;;22.10;3.83;;;14.50;85.50;;;;;;5016031;28;20040;-74
2022/06/19 06:39:47;;;;;;;16.02;3.22;;;14.60;85.90;;;;;;5009380;28;20045;-75
2022/06/19 06:42:13;;;;;;;22.35;4.45;;;14.70;85.80;;;;;;5011571;28;20041;-74
2022/06/19 06:44:38;;;;;;;18.88;4.05;;;14.70;86.20;;;;;;5012004;28;20491;-74
2022/06/19 06:47:04;;;;;;;18.05;3.58;;;14.80;86.10;;;;;;5012201;28;20481;-74
2022/06/19 06:49:30;;;;;;;17.00;3.55;;;14.80;85.60;;;;;;5012914;28;20041;-73
2022/06/19 06:51:56;;;;;;;20.75;3.97;;;14.80;85.70;;;;;;5012525;28;20033;-73
2022/06/19 06:54:21;;;;;;;15.75;3.50;;;14.90;85.70;;;;;;4997619;28;20381;-73
2022/06/19 06:56:47;;;;;;;24.75;5.60;;;14.80;85.30;;;;;;5011114;28;20989;-74
2022/06/19 06:59:13;;;;;;;19.48;4.78;;;14.80;85.50;;;;;;5017121;28;20437;-73
2022/06/19 07:01:38;;;;;;;23.92;4.38;;;14.80;85.50;;;;;;5014465;28;20038;-74
2022/06/19 07:04:04;;;;;;;19.52;3.97;;;14.90;85.60;;;;;;5013141;28;20421;-74
2022/06/19 07:06:31;;;;;;;21.67;5.57;;;14.90;84.90;;;;;;5010318;28;20175;-73
2022/06/19 07:08:57;;;;;;;18.80;3.58;;;15.00;84.80;;;;;;5010697;28;20085;-74
2022/06/19 07:11:27;;;;;;;24.73;4.68;;;15.10;84.60;;;;;;5007685;28;20042;-73
2022/06/19 07:13:54;;;;;;;15.88;3.85;;;15.10;84.40;;;;;;4999537;28;20373;-73
2022/06/19 07:16:20;;;;;;;20.83;4.38;;;15.10;84.60;;;;;;5011096;28;20056;-75
2022/06/19 07:18:45;;;;;;;17.33;3.65;;;15.30;84.40;;;;;;5010109;28;20037;-74
2022/06/19 07:21:11;;;;;;;18.10;4.25;;;15.40;84.30;;;;;;5007780;28;20109;-74
2022/06/19 07:23:39;;;;;;;17.17;3.97;;;15.60;84.40;;;;;;4993432;28;20057;-73
2022/06/19 07:26:09;;;;;;;19.02;4.10;;;15.60;83.70;;;;;;5011643;28;20038;-73
2022/06/19 07:28:34;;;;;;;21.67;4.00;;;15.70;83.50;;;;;;5013546;28;20528;-72
2022/06/19 07:31:00;;;;;;;17.35;3.65;;;15.60;83.20;;;;;;5015768;28;20130;-72
2022/06/19 07:33:26;;;;;;;18.25;3.50;;;15.60;84.20;;;;;;5015060;28;20037;-73
2022/06/19 07:35:52;;;;;;;19.58;4.03;;;15.60;84.10;;;;;;5013638;28;20551;-73
2022/06/19 07:38:17;;;;;;;20.20;3.88;;;15.50;83.60;;;;;;5014704;28;20081;-74
2022/06/19 07:40:43;;;;;;;24.05;3.70;;;15.40;84.50;;;;;;5001384;28;20037;-73
2022/06/19 07:43:08;;;;;;;18.10;3.85;;;15.60;84.40;;;;;;5015306;28;20037;-74
2022/06/19 07:45:35;;;;;;;19.45;3.70;;;15.80;83.80;;;;;;4996128;28;20045;-73
2022/06/19 07:50:48;;;;;;;22.75;3.90;;;16.10;83.70;;;;;;5024012;28;20052;-75
2022/06/19 07:53:15;;;;;;;15.48;3.10;;;16.10;83.10;;;;;;5021607;28;20106;-75
2022/06/19 07:55:40;;;;;;;18.70;3.70;;;16.10;82.60;;;;;;5022160;28;20052;-75
2022/06/19 07:58:07;;;;;;;21.52;4.38;;;16.10;82.90;;;;;;5001374;28;20034;-74
2022/06/19 08:00:35;;;;;;;20.15;3.85;;;16.10;82.90;;;;;;5023813;28;20048;-76
2022/06/19 08:03:01;;;;;;;26.13;4.82;;;16.10;82.40;;;;;;5021819;28;20622;-76
2022/06/19 08:05:29;;;;;;;12.68;3.63;;;16.20;82.70;;;;;;5021300;28;20098;-71
2022/06/19 08:07:57;;;;;;;22.92;4.82;;;16.10;82.70;;;;;;5023487;28;20100;-73
2022/06/19 08:10:27;;;;;;;19.20;4.47;;;16.20;83.20;;;;;;5023047;28;20040;-73
2022/06/19 08:12:53;;;;;;;18.75;5.13;;;16.20;83.00;;;;;;5022311;28;20029;-74
2022/06/19 08:15:20;;;;;;;16.67;4.35;;;16.30;82.60;;;;;;5021234;28;20056;-73
2022/06/19 08:17:46;;;;;;;17.58;4.25;;;16.40;82.60;;;;;;5024087;28;20045;-75
2022/06/19 08:20:13;;;;;;;19.95;4.40;;;16.50;82.10;;;;;;5022252;28;20052;-72
2022/06/19 08:22:40;;;;;;;21.90;5.22;;;16.60;81.90;;;;;;5023876;28;20044;-74
2022/06/19 08:25:08;;;;;;;17.88;3.75;;;16.60;80.50;;;;;;5004596;28;20041;-75
2022/06/19 08:27:37;;;;;;;21.00;4.50;;;16.50;81.10;;;;;;5022035;28;20120;-74
2022/06/19 08:30:05;;;;;;;16.40;4.22;;;16.40;80.80;;;;;;5002809;28;20111;-75
2022/06/19 08:32:31;;;;;;;17.90;4.10;;;16.30;81.10;;;;;;5016771;28;20038;-73
2022/06/19 08:34:56;;;;;;;19.73;4.60;;;16.20;80.60;;;;;;5012232;28;20045;-75
2022/06/19 08:37:22;;;;;;;19.42;5.03;;;16.10;81.30;;;;;;5016414;28;20247;-74
2022/06/19 08:39:48;;;;;;;16.95;4.80;;;16.20;81.60;;;;;;5011340;28;20034;-71
2022/06/19 08:42:25;;;;;;;19.20;4.70;;;16.20;81.10;;;;;;5004059;28;20357;-73
2022/06/19 08:45:10;;;;;;;18.52;4.15;;;16.40;81.00;;;;;;5019061;28;20045;-74
2022/06/19 08:47:58;;;;;;;18.83;4.13;;;16.50;81.00;;;;;;5017689;28;20092;-74
2022/06/19 08:50:39;;;;;;;18.10;4.03;;;16.40;80.00;;;;;;5015169;28;20037;-73
2022/06/19 08:53:08;;;;;;;21.52;4.63;;;16.40;81.00;;;;;;5009686;28;20038;-76
2022/06/19 08:55:54;;;;;;;18.08;3.63;;;16.60;81.00;;;;;;5012699;28;20385;-74
2022/06/19 08:58:50;;;;;;;15.77;3.88;;;16.60;80.10;;;;;;5011840;28;20033;-74
2022/06/19 09:01:26;;;;;;;19.33;4.50;;;16.80;79.50;;;;;;5011168;28;20139;-75
2022/06/19 09:07:07;;;;;;;13.52;4.03;;;16.80;78.60;;;;;;5013579;28;20055;-73
2022/06/19 09:09:42;;;;;;;15.43;4.90;;;17.00;79.40;;;;;;5008902;28;20145;-75
2022/06/19 09:12:10;;;;;;;18.40;4.13;;;16.90;78.10;;;;;;5007266;28;20474;-73
2022/06/19 09:14:55;;;;;;;17.63;5.20;;;16.80;79.40;;;;;;5010250;28;20038;-73
2022/06/19 09:17:49;;;;;;;19.10;6.95;;;16.80;79.10;;;;;;5015520;28;20038;-73
2022/06/19 09:20:33;;;;;;;17.52;8.63;;;16.80;78.60;;;;;;5020766;28;20556;-72
2022/06/19 09:23:30;;;;;;;19.45;8.00;;;16.90;78.60;;;;;;5021677;28;20034;-73
2022/06/19 09:26:09;;;;;;;19.83;8.73;;;17.10;78.90;;;;;;5013148;28;20053;-72
2022/06/19 09:28:50;;;;;;;19.42;10.73;;;17.10;78.30;;;;;;5018546;28;20324;-71
2022/06/19 09:31:29;;;;;;;18.17;11.15;;;17.30;78.40;;;;;;5010664;28;20073;-73
2022/06/19 09:34:19;;;;;;;20.40;12.07;;;17.30;78.90;;;;;;5006060;28;20042;-74
2022/06/19 09:37:00;;;;;;;20.08;13.32;;;17.30;78.00;;;;;;5013701;28;20050;-74
2022/06/19 09:39:32;;;;;;;18.90;14.02;;;17.40;76.70;;;;;;5010881;28;20033;-73
2022/06/19 09:42:21;;;;;;;17.95;12.07;;;17.40;77.50;;;;;;5015046;28;20101;-74
2022/06/19 09:44:55;;;;;;;16.30;11.63;;;17.40;77.60;;;;;;5017711;28;20033;-73
2022/06/19 09:47:35;;;;;;;;;;;17.40;78.20;;;;;;5017452;28;20041;-73
2022/06/19 09:50:28;;;;;;;14.63;7.70;;;17.40;77.50;;;;;;5017184;28;20365;-73
2022/06/19 09:53:12;;;;;;;15.90;6.72;;;17.40;77.40;;;;;;4989987;28;20520;-72
2022/06/19 09:55:42;;;;;;;13.20;5.20;;;17.40;77.80;;;;;;5001599;28;20042;-73
2022/06/19 09:58:19;;;;;;;10.10;5.38;;;17.70;77.00;;;;;;5002386;28;20445;-73
2022/06/19 10:00:48;;;;;;;13.68;4.18;;;18.20;76.10;;;;;;5011622;28;20051;-73
2022/06/19 10:03:45;;;;;;;11.73;4.00;;;18.60;74.20;;;;;;5003526;28;20037;-72
2022/06/19 10:06:25;;;;;;;11.27;3.10;;;18.80;73.60;;;;;;5009760;28;20489;-73
2022/06/19 10:09:13;;;;;;;12.75;3.70;;;18.50;73.80;;;;;;4999147;28;20383;-73
2022/06/19 10:11:41;;;;;;;10.85;3.10;;;18.40;73.70;;;;;;5017740;28;20856;-75
2022/06/19 10:14:13;;;;;;;11.23;2.97;;;18.90;74.60;;;;;;5012466;28;20098;-73
2022/06/19 10:16:52;;;;;;;8.15;2.13;;;19.10;72.40;;;;;;5011295;28;20060;-74
2022/06/19 10:19:25;;;;;;;10.65;3.45;;;19.50;70.50;;;;;;5005230;28;20065;-74
2022/06/19 10:22:14;;;;;;;;;;;19.20;70.00;;;;;;5018505;28;20091;-74
2022/06/19 10:25:10;;;;;;;10.32;3.58;;;18.80;71.70;;;;;;5017884;28;19932;-74
2022/06/19 10:27:42;;;;;;;8.77;4.00;;;18.70;71.80;;;;;;5013447;28;20503;-74
2022/06/19 10:30:35;;;;;;;11.95;4.28;;;18.40;72.30;;;;;;5011988;28;20046;-75
2022/06/19 10:33:09;;;;;;;10.45;5.57;;;18.10;73.30;;;;;;5012659;28;20033;-75
2022/06/19 10:35:46;;;;;;;12.05;5.40;;;18.10;73.20;;;;;;4999285;28;20050;-73
2022/06/19 10:38:43;;;;;;;11.27;5.18;;;18.00;73.80;;;;;;5013264;28;20116;-76
2022/06/19 10:44:37;;;;;;;9.93;4.10;;;18.40;73.10;;;;;;5012270;28;20111;-73
2022/06/19 10:47:20;;;;;;;8.68;3.50;;;18.40;72.20;;;;;;5014553;28;20053;-73
2022/06/19 10:50:10;;;;;;;11.23;3.65;;;18.30;72.30;;;;;;5010215;28;20397;-73
2022/06/19 10:52:44;;;;;;;9.13;3.20;;;18.50;72.70;;;;;;4996237;28;20030;-74
2022/06/19 10:55:36;;;;;;;10.48;3.90;;;18.60;73.00;;;;;;5017202;28;20092;-74
2022/06/19 10:58:13;;;;;;;10.75;3.58;;;18.60;73.70;;;;;;4987572;28;20068;-73
2022/06/19 11:00:39;;;;;;;9.90;3.40;;;18.60;72.60;;;;;;5013975;28;20072;-74
2022/06/19 11:06:22;;;;;;;10.32;3.67;;;18.20;73.90;;;;;;5016235;28;20083;-75
2022/06/19 11:08:55;;;;;;;8.93;3.60;;;18.10;74.60;;;;;;5015679;28;20056;-74
2022/06/19 11:11:23;;;;;;;9.27;4.03;;;18.20;75.10;;;;;;5007978;28;21014;-74
2022/06/19 11:14:04;;;;;;;9.80;3.58;;;18.20;75.40;;;;;;5011886;28;20029;-75
2022/06/19 11:16:32;;;;;;;8.82;3.88;;;18.20;75.20;;;;;;5015225;28;20197;-75
2022/06/19 11:18:58;;;;;;;10.30;4.28;;;18.10;75.80;;;;;;4996090;28;20369;-72
2022/06/19 11:21:31;;;;;;;11.82;4.80;;;18.00;76.40;;;;;;5014239;28;20570;-76
2022/06/19 11:24:01;;;;;;;9.98;4.53;;;17.90;76.10;;;;;;5013228;28;20061;-73
2022/06/19 11:26:35;;;;;;;11.93;7.80;;;17.90;76.60;;;;;;4998222;28;20041;-74
2022/06/19 11:29:09;;;;;;;15.65;9.02;;;17.70;76.80;;;;;;5011611;28;20034;-74
2022/06/19 11:31:59;;;;;;;14.93;9.52;;;17.70;77.20;;;;;;4994002;28;20026;-74
2022/06/19 11:34:44;;;;;;;15.13;9.07;;;17.70;77.10;;;;;;5017960;28;20029;-74
2022/06/19 11:37:10;;;;;;;15.80;9.27;;;17.40;76.90;;;;;;5008627;28;20111;-75
2022/06/19 11:39:59;;;;;;;13.32;9.30;;;17.30;77.80;;;;;;5016911;28;20482;-75
2022/06/19 11:42:44;;;;;;;14.93;8.65;;;17.40;78.10;;;;;;5011499;28;20084;-75
2022/06/19 11:45:13;;;;;;;13.68;8.13;;;17.40;77.20;;;;;;5016631;28;20038;-75
2022/06/19 11:47:46;;;;;;;14.05;8.45;;;17.40;77.20;;;;;;5022264;28;20148;-75
2022/06/19 11:50:19;;;;;;;14.52;9.60;;;17.20;77.40;;;;;;5014664;28;20496;-74
2022/06/19 11:53:02;;;;;;;16.17;10.48;;;17.10;77.70;;;;;;5016005;28;20124;-74
2022/06/19 11:55:37;;;;;;;12.65;9.43;;;17.10;77.90;;;;;;5012987;28;20038;-74
2022/06/19 11:58:31;;;;;;;14.65;9.73;;;17.20;77.60;;;;;;5002635;28;20498;-74
2022/06/19 12:01:17;;;;;;;14.48;9.88;;;17.40;76.90;;;;;;5015155;28;20140;-74
2022/06/19 12:04:00;;;;;;;15.07;10.27;;;17.40;76.60;;;;;;5017642;28;20097;-74
2022/06/19 12:06:51;;;;;;;12.48;8.25;;;17.30;76.10;;;;;;5007177;28;20045;-74
2022/06/19 12:09:26;;;;;;;15.00;8.18;;;17.30;76.00;;;;;;5036969;28;20480;-74
2022/06/19 12:12:13;;;;;;;15.88;8.57;;;17.20;76.10;;;;;;5021357;28;20202;-74
2022/06/19 12:15:03;;;;;;;12.90;8.30;;;17.10;77.40;;;;;;5018033;28;20083;-74
2022/06/19 12:17:32;;;;;;;11.68;6.60;;;17.10;78.70;;;;;;5023644;28;20038;-74
2022/06/19 12:20:06;;;;;;;14.18;6.93;;;17.10;78.40;;;;;;5023214;28;20053;-74
2022/06/19 12:22:57;;;;;;;11.75;5.70;;;16.90;79.20;;;;;;5027118;28;20121;-74
2022/06/19 12:25:28;;;;;;;15.20;6.30;;;16.90;79.30;;;;;;5021694;28;20080;-75
2022/06/19 12:27:57;;;;;;;14.00;6.05;;;16.70;79.80;;;;;;5029806;28;20045;-74
2022/06/19 12:30:35;;;;;;;12.02;6.25;;;16.60;80.80;;;;;;5009918;28;20528;-74
2022/06/19 12:33:09;;;;;;;12.80;6.03;;;16.60;81.10;;;;;;5021376;28;20037;-76
2022/06/19 12:35:47;;;;;;;13.00;6.18;;;16.50;81.10;;;;;;5011303;28;20049;-74
2022/06/19 12:38:15;;;;;;;14.18;7.40;;;16.40;82.10;;;;;;5021046;28;20099;-74
2022/06/19 12:41:01;;;;;;;11.35;6.10;;;16.40;83.10;;;;;;5015645;28;20053;-74
2022/06/19 12:43:31;;;;;;;12.70;5.13;;;16.40;83.10;;;;;;5020079;28;20041;-74
2022/06/19 12:45:57;;;;;;;13.35;5.65;;;16.30;83.00;;;;;;4998194;28;20045;-73
2022/06/19 12:48:41;;;;;;;12.40;5.30;;;16.20;83.00;;;;;;4991063;28;20362;-74
2022/06/19 12:51:32;;;;;;;15.25;5.07;;;16.10;83.40;;;;;;5015754;28;20134;-74
2022/06/19 12:54:09;;;;;;;16.08;5.20;;;16.10;83.00;;;;;;5020138;28;20037;-74
2022/06/19 12:57:00;;;;;;;17.75;5.43;;;16.10;82.80;;;;;;5003995;28;20045;-74
2022/06/19 12:59:35;;;;;;;13.73;5.15;;;16.20;82.70;;;;;;5005434;28;20500;-74
2022/06/19 13:02:06;;;;;;;;;;;16.40;84.20;;;;;;5021226;28;20049;-74
2022/06/19 13:04:40;;;;;;;12.45;5.47;;;16.60;82.70;;;;;;5022060;28;19955;-74
2022/06/19 13:07:34;;;;;;;13.65;5.38;;;16.60;83.50;;;;;;5005830;28;20068;-74
2022/06/19 13:10:38;;;;;;;14.25;5.50;;;16.60;83.10;;;;;;5021568;28;20042;-74
2022/06/19 13:13:06;;;;;;;14.30;5.30;;;16.70;83.50;;;;;;5018947;28;20099;-75